Flight Track Log - Related Links

Times and Time Zones

All times are in EDT time to prevent confusion due to time zone crossing. See the AAL2007 flight status page for this flight to view local times or setup timezone preferences in your user account.

Time Position Orientation Groundspeed Altitude Reporting Facility
EDT Latitude Longitude Course Direction KTS MPH feet Rate Location/Type
Sun 06:14:08 PM 41.9000 -87.9000 196° South 198 228 2,900  Level Chicago TRACON
Sun 06:15:45 PM 41.8142 -87.8503 157° South 244 281 6,000 2,264 Climbing Chicago Center
Sun 06:16:00 PM 41.5122 -87.9976 189° South  Level FlightAware
Sun 06:16:47 PM 41.7367 -87.8422 176° South 278 320 8,900  Level Chicago Center
Sun 06:17:00 PM 41.3966 -88.0184 201° Southwest  Level FlightAware
Sun 06:17:49 PM 41.6625 -87.8847 203° Southwest 291 335 11,500  Level Chicago Center
Sun 06:18:00 PM 41.2846 -88.0598 189° South  Level FlightAware
Sun 06:18:51 PM 41.5719 -87.9358 203° Southwest 295 339 14,500  Level Chicago Center
Sun 06:19:00 PM 41.1750 -88.0886 196° South  Level FlightAware
Sun 06:19:53 PM 41.4897 -87.9831 203° Southwest 323 372 15,900  Level Chicago Center
Sun 06:20:55 PM 41.4028 -88.0331 203° Southwest 349 402 17,900 1,887 Climbing Chicago Center
Sun 06:21:57 PM 41.2939 -88.0683 194° South 358 412 19,800 1,403 Climbing Chicago Center
Sun 06:22:59 PM 41.1961 -88.1222 203° Southwest 385 443 20,800 1,210 Climbing Chicago Center
Sun 06:24:01 PM 41.0956 -88.1933 208° Southwest 404 465 22,300 1,452 Climbing Chicago Center
Sun 06:25:03 PM 40.9919 -88.2636 207° Southwest 416 479 23,800 1,161 Climbing Chicago Center
Sun 06:26:05 PM 40.8839 -88.3378 207° Southwest 435 501 24,700 1,306 Climbing Chicago Center
Sun 06:27:07 PM 40.7492 -88.4311 208° Southwest 456 525 26,500 1,694 Climbing Chicago Center
Sun 06:28:09 PM 40.6375 -88.5064 207° Southwest 454 522 28,200 1,500 Climbing Chicago Center
Sun 06:29:11 PM 40.5261 -88.5803 207° Southwest 453 521 29,600 1,161 Climbing Chicago Center
Sun 06:30:13 PM 40.4192 -88.6522 207° Southwest 453 521 30,600 1,016 Climbing Chicago Center
Sun 06:31:15 PM 40.3058 -88.7272 207° Southwest 455 524 31,700 1,210 Climbing Chicago Center
Sun 06:32:17 PM 40.1703 -88.8175 207° Southwest 453 521 33,100 1,065 Climbing Chicago Center
Sun 06:33:19 PM 40.0564 -88.8939 207° Southwest 457 526 33,900 439 Climbing Chicago Center
Sun 06:34:20 PM 39.9444 -88.9678 207° Southwest 454 522 34,000 53 Climbing Chicago Center
Sun 06:35:13 PM 39.8550 -89.0253 206° Southwest 454 522 34,000  Level Kansas Center
Sun 06:36:15 PM 39.7397 -89.1014 207° Southwest 460 529 34,000  Level Kansas Center
Sun 06:37:17 PM 39.6247 -89.1767 207° Southwest 462 532 34,000  Level Kansas Center
Sun 06:38:18 PM 39.4850 -89.2664 206° Southwest 464 534 34,000  Level Kansas Center
Sun 06:39:20 PM 39.3806 -89.3358 207° Southwest 465 535 34,000  Level Kansas Center
Sun 06:40:22 PM 39.2639 -89.4106 206° Southwest 467 537 34,000  Level Kansas Center
Sun 06:41:24 PM 39.1247 -89.4967 206° Southwest 466 536 34,000  Level Kansas Center
Sun 06:42:26 PM 38.9922 -89.5281 190° South 481 554 34,000  Level Kansas Center
Sun 06:43:27 PM 38.8519 -89.5650 192° South 477 549 34,000  Level Kansas Center
Sun 06:44:29 PM 38.7236 -89.5975 191° South 470 541 34,000  Level Kansas Center
Sun 06:45:31 PM 38.5942 -89.6297 191° South 471 542 34,000  Level Kansas Center
Sun 06:46:33 PM 38.4533 -89.6647 191° South 474 545 34,000  Level Kansas Center
Sun 06:47:34 PM 38.3544 -89.7314 208° Southwest 461 531 34,000  Level Kansas Center
Sun 06:48:36 PM 38.2417 -89.8133 210° Southwest 463 533 34,000  Level Kansas Center
Sun 06:49:38 PM 38.1069 -89.9069 209° Southwest 462 532 34,000  Level Kansas Center
Sun 06:50:40 PM 37.9950 -89.9847 209° Southwest 458 527 34,000  Level Kansas Center
Sun 06:51:41 PM 37.8828 -90.0625 209° Southwest 458 527 34,000  Level Kansas Center
Sun 06:52:43 PM 37.7697 -90.1381 208° Southwest 459 528 34,000  Level Kansas Center
Sun 06:53:45 PM 37.6575 -90.2158 209° Southwest 459 528 34,000  Level Kansas Center
Sun 06:54:46 PM 37.5514 -90.3081 215° Southwest 460 529 34,000  Level Kansas Center
Sun 06:55:48 PM 37.4547 -90.4153 221° Southwest 461 531 34,000  Level Kansas Center
Sun 06:56:49 PM 37.3394 -90.4939 208° Southwest 467 537 34,000  Level Kansas Center
Sun 06:57:51 PM 37.2053 -90.5800 207° Southwest 461 531 34,000  Level Kansas Center
Sun 06:58:53 PM 37.0944 -90.6533 208° Southwest 454 522 34,000  Level Kansas Center
Sun 06:59:55 PM 36.9853 -90.7231 207° Southwest 446 513 34,000  Level Kansas Center
Sun 07:00:56 PM 36.8756 -90.7933 207° Southwest 443 510 34,000  Level Kansas Center
Sun 07:01:31 PM 36.8081 -90.8414 210° Southwest 455 524 34,000  Level Memphis Center
Sun 07:02:31 PM 36.6994 -90.9133 208° Southwest 455 524 34,000  Level Memphis Center
Sun 07:03:31 PM 36.5864 -90.9875 208° Southwest 455 524 34,000  Level Memphis Center
Sun 07:04:31 PM 36.4736 -91.0589 207° Southwest 455 524 34,000  Level Memphis Center
Sun 07:05:31 PM 36.3628 -91.1275 207° Southwest 455 524 34,000  Level Memphis Center
Sun 07:06:31 PM 36.2497 -91.2011 208° Southwest 455 524 34,000  Level Memphis Center
Sun 07:07:31 PM 36.1367 -91.2719 207° Southwest 455 524 34,000  Level Memphis Center
Sun 07:08:31 PM 36.0214 -91.3425 206° Southwest 455 524 34,000  Level Memphis Center
Sun 07:09:31 PM 35.9103 -91.4103 206° Southwest 455 524 34,000  Level Memphis Center
Sun 07:10:31 PM 35.8011 -91.4833 208° Southwest 455 524 34,000  Level Memphis Center
Sun 07:11:31 PM 35.6881 -91.5533 207° Southwest 455 524 34,000  Level Memphis Center
Sun 07:12:31 PM 35.5767 -91.6256 208° Southwest 455 524 34,000  Level Memphis Center
Sun 07:13:31 PM 35.4633 -91.6928 206° Southwest 455 524 34,000  Level Memphis Center
Sun 07:14:31 PM 35.3542 -91.7622 207° Southwest 455 524 34,000  Level Memphis Center
Sun 07:15:31 PM 35.2406 -91.8317 207° Southwest 455 524 34,000  Level Memphis Center
Sun 07:16:31 PM 35.1292 -91.9033 208° Southwest 455 524 34,000  Level Memphis Center
Sun 07:17:31 PM 35.0072 -91.9797 207° Southwest 450 518 34,000  Level Memphis Center
Sun 07:18:31 PM 34.8958 -92.0483 207° Southwest 455 524 34,000  Level Memphis Center
Sun 07:19:31 PM 34.7842 -92.1169 207° Southwest 455 524 34,000  Level Memphis Center
Sun 07:20:31 PM 34.6706 -92.1828 205° Southwest 455 524 34,000  Level Memphis Center
Sun 07:21:31 PM 34.5672 -92.2639 213° Southwest 455 524 34,000  Level Memphis Center
Sun 07:22:31 PM 34.4617 -92.3422 211° Southwest 455 524 34,000  Level Memphis Center
Sun 07:23:31 PM 34.3581 -92.4203 212° Southwest 455 524 34,000  Level Memphis Center
Sun 07:24:31 PM 34.2525 -92.4981 211° Southwest 455 524 34,000  Level Memphis Center
Sun 07:25:31 PM 34.1467 -92.5783 212° Southwest 450 518 34,000  Level Memphis Center
Sun 07:27:42 PM 33.9975 -92.8192 233° Southwest 457 526 34,000  Level Fort Center
Sun 07:28:42 PM 33.9331 -92.9428 238° Southwest 457 526 34,000  Level Fort Center
Sun 07:29:42 PM 33.8603 -93.0639 234° Southwest 451 519 34,000  Level Fort Center
Sun 07:30:42 PM 33.7933 -93.1872 237° Southwest 451 519 34,000  Level Fort Center
Sun 07:31:42 PM 33.7267 -93.3103 237° Southwest 451 519 34,000  Level Fort Center
Sun 07:32:42 PM 33.6575 -93.4308 235° Southwest 451 519 34,000  Level Fort Center
Sun 07:33:42 PM 33.5903 -93.5536 237° Southwest 451 519 34,000  Level Fort Center
Sun 07:34:42 PM 33.5211 -93.6786 236° Southwest 451 519 34,000  Level Fort Center
Sun 07:35:42 PM 33.4556 -93.7958 236° Southwest 451 519 34,000  Level Fort Center
Sun 07:36:42 PM 33.3819 -93.9258 236° Southwest 457 526 34,000  Level Fort Center
Sun 07:37:42 PM 33.3164 -94.0453 237° Southwest 452 520 34,000  Level Fort Center
Sun 07:38:42 PM 33.2406 -94.1747 235° Southwest 446 513 34,000  Level Fort Center
Sun 07:39:42 PM 33.1725 -94.2939 236° Southwest 441 507 34,000  Level Fort Center
Sun 07:40:42 PM 33.1064 -94.4103 236° Southwest 436 502 34,000  Level Fort Center
Sun 07:41:42 PM 33.0403 -94.5264 236° Southwest 436 502 34,000  Level Fort Center
Sun 07:42:42 PM 32.9742 -94.6425 236° Southwest 430 495 34,000  Level Fort Center
Sun 07:43:42 PM 32.9036 -94.7608 235° Southwest 430 495 34,000  Level Fort Center
Sun 07:44:42 PM 32.8350 -94.8792 235° Southwest 430 495 34,000  Level Fort Center
Sun 07:45:42 PM 32.7664 -94.9972 235° Southwest 436 502 34,000  Level Fort Center
Sun 07:46:42 PM 32.6975 -95.1150 235° Southwest 436 502 34,000 -450 Level Fort Center
Sun 07:47:42 PM 32.6308 -95.2353 237° Southwest 436 502 33,100 -900 Descending Fort Center
Sun 07:48:42 PM 32.5619 -95.3528 235° Southwest 436 502 32,200 -550 Descending Fort Center
Sun 07:49:42 PM 32.4908 -95.4750 235° Southwest 442 509 32,000 -100 Descending Fort Center
Sun 07:50:42 PM 32.4194 -95.5922 234° Southwest 447 514 32,000  Level Fort Center
Sun 07:51:42 PM 32.3500 -95.7142 236° Southwest 447 514 32,000  Level Fort Center
Sun 07:52:42 PM 32.2808 -95.8333 236° Southwest 447 514 32,000  Level Fort Center
Sun 07:53:42 PM 32.2111 -95.9500 235° Southwest 447 514 32,000  Level Fort Center
Sun 07:54:42 PM 32.1394 -96.0689 235° Southwest 447 514 32,000  Level Fort Center
Sun 07:55:42 PM 32.0697 -96.1900 236° Southwest 447 514 32,000  Level Fort Center
Sun 07:56:42 PM 31.9978 -96.3086 234° Southwest 447 514 32,000  Level Fort Center
Sun 07:57:42 PM 31.9278 -96.4269 235° Southwest 447 514 32,000  Level Fort Center
Sun 07:58:42 PM 31.8556 -96.5450 234° Southwest 447 514 32,000 -253 Level Fort Center
Sun 07:59:17 PM 31.8278 -96.5956 237° Southwest 444 511 31,600 -2,103 Descending Houston Center
Sun 08:00:19 PM 31.7428 -96.7344 234° Southwest 445 512 28,600 -1,756 Descending Houston Center
Sun 08:01:20 PM 31.6683 -96.8581 235° Southwest 457 526 28,000 -293 Descending Houston Center
Sun 08:02:22 PM 31.5942 -96.9792 234° Southwest 456 525 28,000 -1,500 Level Houston Center
Sun 08:03:24 PM 31.5094 -97.0886 228° Southwest 458 527 24,900 -2,710 Descending Houston Center
Sun 08:04:26 PM 31.3869 -97.1411 200° South 461 531 22,400 -1,415 Descending Houston Center
Sun 08:05:27 PM 31.2667 -97.1867 198° South 451 519 22,000 -1,073 Descending Houston Center
Sun 08:06:29 PM 31.1489 -97.2328 199° South 444 511 20,200 -2,081 Descending Houston Center
Sun 08:07:31 PM 31.0356 -97.2769 198° South 432 497 17,700 -2,710 Descending Houston Center
Sun 08:08:33 PM 30.9111 -97.3258 199° South 422 486 14,600 -2,293 Descending Houston Center
Sun 08:09:34 PM 30.8067 -97.3656 198° South 401 461 13,000 -1,073 Descending Houston Center
Sun 08:10:36 PM 30.7319 -97.4286 216° Southwest 335 386 12,400 -1,016 Descending Houston Center
Sun 08:11:38 PM 30.6717 -97.4989 225° Southwest 310 357 10,900 -1,355 Descending Houston Center
Sun 08:12:40 PM 30.6144 -97.5664 225° Southwest 296 341 9,600 -1,366 Descending Houston Center
Sun 08:13:41 PM 30.5589 -97.6317 225° Southwest 286 329 8,100 -1,512 Descending Houston Center
Sun 08:14:43 PM 30.4947 -97.7036 224° Southwest 275 316 6,500 -1,403 Descending Houston Center
Sun 08:15:45 PM 30.4336 -97.6839 164° South 231 266 5,200 -1,258 Descending Houston Center

Login

Don't have an account? Register now (free) for customized features, flight alerts, and more!